Time;durP1;ratioP1;P1;durP2;ratioP2;P2;SDS_P1;SDS_P2;PMS_P1;PMS_P2;Temp;Humidity;BMP_temperature;BMP_pressure;BME280_temperature;BME280_humidity;BME280_pressure;Samples;Min_cycle;Max_cycle;Signal;HPM_P1;HPM_P2
2023/09/26 00:00:23;;;;;;;417.13;180.37;;;13.90;99.90;;;;;;5086476;28;20717;-50
2023/09/26 00:02:50;;;;;;;399.57;176.53;;;13.90;99.90;;;;;;5086624;28;20270;-49
2023/09/26 00:05:18;;;;;;;401.03;179.03;;;;;;;;;;5086658;28;20217;-50
2023/09/26 00:07:44;;;;;;;401.20;175.27;;;;;;;;;;5086970;28;20210;-52
2023/09/26 00:10:14;;;;;;;383.10;161.83;;;13.80;99.90;;;;;;5086642;28;20684;-50
2023/09/26 00:12:40;;;;;;;401.67;169.07;;;13.80;99.90;;;;;;5087011;28;20209;-50
2023/09/26 00:15:07;;;;;;;404.47;172.97;;;16.00;99.90;;;;;;5086420;28;20242;-50
2023/09/26 00:17:33;;;;;;;396.57;170.13;;;;;;;;;;5086581;28;20321;-50
2023/09/26 00:19:59;;;;;;;414.07;177.63;;;;;;;;;;5086198;28;20221;-50
2023/09/26 00:22:25;;;;;;;405.07;173.37;;;;;;;;;;5086431;28;20612;-50
2023/09/26 00:24:51;;;;;;;391.20;168.77;;;13.70;99.90;;;;;;5086731;28;20231;-50
2023/09/26 00:27:17;;;;;;;393.30;171.70;;;13.70;99.90;;;;;;5087372;28;20174;-50
2023/09/26 00:29:44;;;;;;;392.47;169.40;;;;;;;;;;5086447;28;20595;-50
2023/09/26 00:32:10;;;;;;;412.43;177.30;;;;;;;;;;5086310;28;20210;-50
2023/09/26 00:34:36;;;;;;;398.43;169.30;;;;;;;;;;5086502;28;20210;-52
2023/09/26 00:37:02;;;;;;;395.33;166.50;;;;;;;;;;5086254;28;20627;-52
2023/09/26 00:39:30;;;;;;;397.87;175.43;;;;;;;;;;5086597;28;20244;-52
2023/09/26 00:41:56;;;;;;;392.80;170.10;;;;;;;;;;5086245;28;20214;-50
2023/09/26 00:44:22;;;;;;;403.27;176.40;;;;;;;;;;5089802;28;20214;-50
2023/09/26 00:46:48;;;;;;;391.13;169.53;;;;;;;;;;5090340;28;20210;-50
2023/09/26 00:49:14;;;;;;;402.87;172.67;;;13.50;99.90;;;;;;5089936;28;20359;-50
2023/09/26 00:51:41;;;;;;;406.90;175.40;;;;;;;;;;5090769;28;20693;-50
2023/09/26 00:54:10;;;;;;;393.33;169.87;;;13.50;99.90;;;;;;5090074;28;20210;-50
2023/09/26 00:56:39;;;;;;;392.60;168.07;;;13.50;99.90;;;;;;5090177;28;20556;-50
2023/09/26 00:59:06;;;;;;;403.20;170.13;;;13.50;99.90;;;;;;5089854;28;20218;-51
2023/09/26 01:01:32;;;;;;;398.00;175.53;;;13.70;99.90;;;;;;5088623;28;20647;-50
2023/09/26 01:03:59;;;;;;;381.57;166.37;;;;;;;;;;5090274;28;20653;-50
2023/09/26 01:06:25;;;;;;;397.53;170.17;;;;;;;;;;5090768;28;20192;-50
2023/09/26 01:08:51;;;;;;;383.60;164.80;;;;;;;;;;5088303;28;20308;-49
2023/09/26 01:11:16;;;;;;;395.20;170.37;;;;;;;;;;5088300;28;20237;-51
2023/09/26 01:13:42;;;;;;;399.40;173.97;;;;;;;;;;5089872;28;20249;-51
2023/09/26 01:16:16;;;;;;;412.53;177.37;;;13.70;99.90;;;;;;5089726;28;20237;-50
2023/09/26 01:18:42;;;;;;;400.63;172.50;;;;;;;;;;5088639;28;20225;-50
2023/09/26 01:21:08;;;;;;;388.07;166.13;;;;;;;;;;5090063;28;20580;-50
2023/09/26 01:23:36;;;;;;;385.90;165.60;;;13.40;99.90;;;;;;5089716;28;20228;-50
2023/09/26 01:26:02;;;;;;;408.13;177.27;;;;;;;;;;5089804;28;20660;-50
2023/09/26 01:28:28;;;;;;;395.70;165.57;;;;;;;;;;5089501;28;20305;-50
2023/09/26 01:30:53;;;;;;;400.57;173.67;;;;;;;;;;5089636;28;20318;-51
2023/09/26 01:33:21;;;;;;;398.80;172.80;;;13.50;99.90;;;;;;5088776;28;20616;-49
2023/09/26 01:35:48;;;;;;;392.60;167.97;;;13.30;99.90;;;;;;5089576;28;20410;-50
2023/09/26 01:38:14;;;;;;;387.17;168.00;;;;;;;;;;5089450;28;20719;-49
2023/09/26 01:40:41;;;;;;;407.77;177.47;;;;;;;;;;5089269;28;20260;-49
2023/09/26 01:43:07;;;;;;;390.07;167.57;;;;;;;;;;5089446;28;21189;-49
2023/09/26 01:45:33;;;;;;;420.23;178.73;;;;;;;;;;5089848;28;20511;-50
2023/09/26 01:48:00;;;;;;;415.63;180.67;;;;;;;;;;5088928;28;20218;-50
2023/09/26 01:50:26;;;;;;;406.30;174.17;;;;;;;;;;5089109;28;20210;-52
2023/09/26 01:52:52;;;;;;;382.30;164.40;;;;;;;;;;5088838;28;20271;-52
2023/09/26 01:55:22;;;;;;;396.80;169.00;;;13.00;99.90;;;;;;5088452;28;20214;-52
2023/09/26 01:57:48;;;;;;;393.00;171.83;;;13.00;99.90;;;;;;5089465;28;20214;-52
2023/09/26 02:00:17;;;;;;;375.00;160.10;;;13.00;99.90;;;;;;5089289;28;20186;-52
2023/09/26 02:02:44;;;;;;;389.17;168.33;;;13.00;99.90;;;;;;5089099;28;20209;-52
2023/09/26 02:05:15;;;;;;;393.73;169.93;;;13.00;99.90;;;;;;5088692;28;20221;-52
2023/09/26 02:07:41;;;;;;;410.33;173.63;;;;;;;;;;5088783;28;20214;-52
2023/09/26 02:10:08;;;;;;;395.27;166.67;;;;;;;;;;5088469;28;20356;-50
2023/09/26 02:12:38;;;;;;;375.67;160.60;;;12.90;99.90;;;;;;5089161;28;20189;-51
2023/09/26 02:15:06;;;;;;;394.03;167.23;;;12.70;99.90;;;;;;5088684;28;20217;-51
2023/09/26 02:17:35;;;;;;;408.03;176.33;;;12.90;99.90;;;;;;5087244;28;20253;-52
2023/09/26 02:20:08;;;;;;;382.70;163.63;;;12.70;99.90;;;;;;5087089;28;20241;-50
2023/09/26 02:22:35;;;;;;;405.03;172.93;;;12.80;99.90;;;;;;5087094;28;20460;-50
2023/09/26 02:25:01;;;;;;;403.17;171.73;;;;;;;;;;5087501;28;20601;-50
2023/09/26 02:27:27;;;;;;;407.20;171.73;;;;;;;;;;5089078;28;20461;-51
2023/09/26 02:29:53;;;;;;;397.77;167.67;;;12.70;99.90;;;;;;5088312;28;20218;-51
2023/09/26 02:32:18;;;;;;;399.23;172.63;;;12.70;99.90;;;;;;5088440;28;20230;-50
2023/09/26 02:34:44;;;;;;;388.20;164.73;;;12.60;99.90;;;;;;5088358;28;20233;-50
2023/09/26 02:37:11;;;;;;;387.67;165.60;;;;;;;;;;5088442;28;20214;-50
2023/09/26 02:39:37;;;;;;;389.40;166.90;;;;;;;;;;5089079;28;20202;-50
2023/09/26 02:42:03;;;;;;;399.93;169.27;;;;;;;;;;5088042;28;20290;-50
2023/09/26 02:44:29;;;;;;;393.73;165.30;;;;;;;;;;5088016;28;20256;-50
2023/09/26 02:46:54;;;;;;;383.43;163.13;;;;;;;;;;5088002;28;20573;-50
2023/09/26 02:49:20;;;;;;;404.93;169.80;;;;;;;;;;5087856;28;20221;-50
2023/09/26 02:51:46;;;;;;;385.57;165.93;;;;;;;;;;5088318;28;20167;-50
2023/09/26 02:54:12;;;;;;;384.30;163.63;;;;;;;;;;5088257;28;20202;-50
2023/09/26 02:56:38;;;;;;;384.47;161.27;;;;;;;;;;5087790;28;20241;-50
2023/09/26 02:59:04;;;;;;;396.50;167.70;;;;;;;;;;5086478;28;20245;-50
2023/09/26 03:01:30;;;;;;;398.60;170.27;;;12.50;99.90;;;;;;5087276;28;20213;-50
2023/09/26 03:03:56;;;;;;;382.90;163.70;;;;;;;;;;5087776;28;20269;-50
2023/09/26 03:06:22;;;;;;;402.87;169.13;;;;;;;;;;5087180;28;20291;-50
2023/09/26 03:08:48;;;;;;;378.80;157.87;;;;;;;;;;5087343;28;20232;-50
2023/09/26 03:11:14;;;;;;;394.00;166.93;;;;;;;;;;5087353;28;20221;-50
2023/09/26 03:13:40;;;;;;;391.47;165.20;;;;;;;;;;5087591;28;20233;-50
2023/09/26 03:16:08;;;;;;;375.37;158.07;;;;;;;;;;5087332;28;20190;-50
2023/09/26 03:18:35;;;;;;;402.17;169.83;;;;;;;;;;5087780;28;20604;-50
2023/09/26 03:21:05;;;;;;;399.70;166.07;;;12.20;99.90;;;;;;5087247;28;20214;-50
2023/09/26 03:23:31;;;;;;;400.73;168.70;;;;;;;;;;5087180;28;20237;-50
2023/09/26 03:25:56;;;;;;;386.43;162.20;;;;;;;;;;5087238;28;20687;-50
2023/09/26 03:28:22;;;;;;;390.37;162.90;;;;;;;;;;5087257;28;20229;-50
2023/09/26 03:30:48;;;;;;;384.07;163.00;;;;;;;;;;5087367;28;20209;-50
2023/09/26 03:33:14;;;;;;;382.93;160.03;;;;;;;;;;5087493;28;20174;-50
2023/09/26 03:35:40;;;;;;;386.00;164.40;;;12.20;99.90;;;;;;5087230;28;20210;-49
2023/09/26 03:38:06;;;;;;;391.00;163.27;;;;;;;;;;5086783;28;20367;-49
2023/09/26 03:40:32;;;;;;;403.47;168.93;;;;;;;;;;5086988;28;20359;-50
2023/09/26 03:42:58;;;;;;;398.37;166.57;;;;;;;;;;5086713;28;20179;-50
2023/09/26 03:45:24;;;;;;;381.63;160.33;;;;;;;;;;5087389;28;20178;-50
2023/09/26 03:47:51;;;;;;;391.40;162.63;;;;;;;;;;5086687;28;20218;-50
2023/09/26 03:50:17;;;;;;;373.77;157.97;;;;;;;;;;5087233;28;20214;-50
2023/09/26 03:52:43;;;;;;;398.93;169.00;;;;;;;;;;5086667;28;20221;-49
2023/09/26 03:55:08;;;;;;;404.63;168.20;;;12.10;99.90;;;;;;5086945;28;20246;-50
2023/09/26 03:57:34;;;;;;;394.20;165.83;;;;;;;;;;5087166;28;20652;-50
2023/09/26 04:00:12;;;;;;;397.53;167.90;;;12.10;99.90;;;;;;5086398;28;20225;-50
2023/09/26 04:02:38;;;;;;;385.70;164.60;;;12.10;99.90;;;;;;5086600;28;20222;-50
2023/09/26 04:05:04;;;;;;;406.87;168.30;;;;;;;;;;5086598;28;20218;-50
2023/09/26 04:07:30;;;;;;;385.27;162.33;;;12.10;99.90;;;;;;5086979;28;20692;-50
2023/09/26 04:09:57;;;;;;;404.60;172.33;;;12.00;99.90;;;;;;5086942;28;20573;-50
2023/09/26 04:12:23;;;;;;;418.90;188.37;;;;;;;;;;5090741;22;20539;-68
2023/09/26 04:14:48;;;;;;;403.83;172.07;;;;;;;;;;5033205;28;20212;-69
2023/09/26 04:17:14;;;;;;;406.67;174.33;;;12.10;99.90;;;;;;5032286;28;20282;-70
2023/09/26 04:19:40;;;;;;;400.83;171.73;;;;;;;;;;5025037;28;20329;-68
2023/09/26 04:22:06;;;;;;;401.97;167.70;;;;;;;;;;5016458;28;20725;-69
2023/09/26 04:24:32;;;;;;;407.53;170.00;;;;;;;;;;5021781;28;20195;-68
2023/09/26 04:26:58;;;;;;;375.67;157.23;;;;;;;;;;5019400;28;20215;-68
2023/09/26 04:29:24;;;;;;;394.13;165.57;;;;;;;;;;5020047;28;20303;-68
2023/09/26 04:31:50;;;;;;;396.30;168.20;;;;;;;;;;5016667;28;20236;-68
2023/09/26 04:34:16;;;;;;;398.33;177.17;;;;;;;;;;5015150;28;20240;-69
2023/09/26 04:36:42;;;;;;;436.17;184.63;;;;;;;;;;5016217;28;20631;-69
2023/09/26 04:39:08;;;;;;;406.73;169.67;;;;;;;;;;5015354;28;20278;-68
2023/09/26 04:41:34;;;;;;;432.83;187.27;;;12.50;99.90;;;;;;5013061;28;20295;-68
2023/09/26 04:43:59;;;;;;;395.90;169.27;;;12.60;99.90;;;;;;5019199;28;20295;-70
2023/09/26 04:46:25;;;;;;;405.77;169.30;;;;;;;;;;5010875;28;20220;-68
2023/09/26 04:48:51;;;;;;;424.93;179.80;;;;;;;;;;5019856;28;20235;-74
2023/09/26 04:51:17;;;;;;;440.93;183.73;;;;;;;;;;5010252;28;20706;-74
2023/09/26 04:53:43;;;;;;;424.03;181.33;;;;;;;;;;5013673;28;20220;-74
2023/09/26 04:56:09;;;;;;;428.97;181.47;;;;;;;;;;5011906;28;20289;-73
2023/09/26 04:58:35;;;;;;;397.73;168.03;;;;;;;;;;5019753;28;20212;-73
2023/09/26 05:01:13;;;;;;;431.53;183.10;;;13.70;99.90;;;;;;5019327;28;20208;-73
2023/09/26 05:03:39;;;;;;;427.13;186.67;;;;;;;;;;5015633;28;20211;-71
2023/09/26 05:06:05;;;;;;;550.13;248.43;;;;;;;;;;4999662;28;20576;-73
2023/09/26 05:08:30;;;;;;;432.30;180.97;;;;;;;;;;4984096;28;20216;-71
2023/09/26 05:10:56;;;;;;;433.27;183.73;;;;;;;;;;5004553;28;20223;-71
2023/09/26 05:13:22;;;;;;;449.23;191.97;;;;;;;;;;5005535;28;20220;-61
2023/09/26 05:15:48;;;;;;;463.67;196.60;;;;;;;;;;5006960;28;20215;-61
2023/09/26 05:18:15;;;;;;;443.17;189.73;;;;;;;;;;5000656;28;20209;-62
2023/09/26 05:20:41;;;;;;;434.83;186.20;;;;;;;;;;5008547;28;20549;-61
2023/09/26 05:23:07;;;;;;;465.60;195.63;;;;;;;;;;5002736;28;20228;-63
2023/09/26 05:25:35;;;;;;;475.60;200.70;;;;;;;;;;5002397;28;20205;-62
2023/09/26 05:28:01;;;;;;;445.43;185.50;;;;;;;;;;5003297;28;20196;-71
2023/09/26 05:30:27;;;;;;;450.07;185.93;;;;;;;;;;5012202;28;20205;-71
2023/09/26 05:32:53;;;;;;;436.47;180.20;;;;;;;;;;5013209;28;20347;-72
2023/09/26 05:35:19;;;;;;;439.37;179.30;;;;;;;;;;5013124;28;20236;-74
2023/09/26 05:37:45;;;;;;;440.50;184.03;;;;;;;;;;5012076;28;20300;-72
2023/09/26 05:40:11;;;;;;;470.57;198.97;;;;;;;;;;5009424;28;20758;-74
2023/09/26 05:42:38;;;;;;;429.17;178.53;;;;;;;;;;5017328;28;20770;-73
2023/09/26 05:45:05;;;;;;;426.37;177.53;;;;;;;;;;5016333;28;20215;-72
2023/09/26 05:47:31;;;;;;;432.27;178.87;;;;;;;;;;5017154;28;20224;-72
2023/09/26 05:49:57;;;;;;;434.20;181.33;;;;;;;;;;5012654;28;20297;-71
2023/09/26 05:52:22;;;;;;;436.37;182.17;;;;;;;;;;5012571;28;20560;-72
2023/09/26 05:54:48;;;;;;;428.60;180.37;;;;;;;;;;5014484;28;20185;-72
2023/09/26 05:57:15;;;;;;;458.57;196.10;;;;;;;;;;5013227;28;20740;-73
2023/09/26 05:59:41;;;;;;;419.87;174.60;;;;;;;;;;5011848;28;20586;-73
2023/09/26 06:02:12;;;;;;;429.80;180.50;;;;;;;;;;5014818;28;20290;-74
2023/09/26 06:04:42;;;;;;;446.13;189.77;;;;;;;;;;5013006;28;20621;-75
2023/09/26 06:07:08;;;;;;;416.77;171.37;;;;;;;;;;5017673;28;20217;-72
2023/09/26 06:09:35;;;;;;;435.03;181.87;;;;;;;;;;5014709;28;20196;-71
2023/09/26 06:12:02;;;;;;;443.00;183.90;;;;;;;;;;5012851;28;20213;-74
2023/09/26 06:14:28;;;;;;;432.67;181.13;;;;;;;;;;5013559;28;20371;-72
2023/09/26 06:16:53;;;;;;;427.63;176.03;;;;;;;;;;5014362;28;20318;-73
2023/09/26 06:19:19;;;;;;;451.87;188.87;;;;;;;;;;5012242;28;20209;-71
2023/09/26 06:21:45;;;;;;;454.13;195.90;;;;;;;;;;5016012;28;20330;-71
2023/09/26 06:24:11;;;;;;;435.10;182.70;;;;;;;;;;5011883;28;20319;-73
2023/09/26 06:26:37;;;;;;;432.17;177.93;;;;;;;;;;5018289;28;20250;-72
2023/09/26 06:29:03;;;;;;;470.70;194.00;;;;;;;;;;5012822;28;20648;-72
2023/09/26 06:31:29;;;;;;;472.50;200.03;;;;;;;;;;5013782;28;20216;-71
2023/09/26 06:33:59;;;;;;;420.90;182.73;;;;;;;;;;5016158;28;20861;-71
2023/09/26 06:36:30;;;;;;;425.23;178.47;;;;;;;;;;5014676;28;20200;-71
2023/09/26 06:38:56;;;;;;;415.73;175.57;;;;;;;;;;5020222;28;20312;-67
2023/09/26 06:41:22;;;;;;;463.77;199.40;;;;;;;;;;5017945;28;20330;-75
2023/09/26 06:43:48;;;;;;;443.07;185.60;;;;;;;;;;5014580;28;20299;-72
2023/09/26 06:46:14;;;;;;;442.10;188.90;;;;;;;;;;5001708;28;20223;-73
2023/09/26 06:48:43;;;;;;;434.27;185.10;;;;;;;;;;5016309;28;20219;-72
2023/09/26 06:51:09;;;;;;;424.37;178.90;;;;;;;;;;5015127;28;20239;-72
2023/09/26 06:53:36;;;;;;;421.23;181.87;;;;;;;;;;5013801;28;20353;-73
2023/09/26 06:56:02;;;;;;;434.93;182.97;;;;;;;;;;5009518;28;21011;-72
2023/09/26 06:58:29;;;;;;;460.37;194.20;;;;;;;;;;5016855;28;20221;-72
2023/09/26 07:00:55;;;;;;;438.40;188.50;;;;;;;;;;5019584;28;20207;-73
2023/09/26 07:03:21;;;;;;;447.23;188.00;;;;;;;;;;5016089;28;20180;-73
2023/09/26 07:05:47;;;;;;;447.17;189.47;;;;;;;;;;5008733;28;20505;-72
2023/09/26 07:08:14;;;;;;;433.37;188.83;;;;;;;;;;5018444;28;20227;-74
2023/09/26 07:10:40;;;;;;;467.77;198.27;;;;;;;;;;5011339;28;20204;-72
2023/09/26 07:13:06;;;;;;;416.30;175.17;;;;;;;;;;5008849;28;20267;-72
2023/09/26 07:15:32;;;;;;;432.40;189.20;;;;;;;;;;5000335;28;20279;-73
2023/09/26 07:17:59;;;;;;;449.53;193.37;;;;;;;;;;5013432;28;20690;-73
2023/09/26 07:23:04;;;;;;;490.93;221.80;;;;;;;;;;4966166;28;20614;-55
2023/09/26 07:25:30;;;;;;;447.50;203.93;;;;;;;;;;4945272;28;20222;-55
2023/09/26 07:27:56;;;;;;;456.57;215.00;;;;;;;;;;4947572;28;20623;-55
2023/09/26 07:30:22;;;;;;;433.83;206.50;;;;;;;;;;4958235;28;20185;-55
2023/09/26 07:32:48;;;;;;;440.10;200.50;;;;;;;;;;4953677;28;20222;-55
2023/09/26 07:35:14;;;;;;;447.23;197.43;;;;;;;;;;4951014;28;20225;-55
2023/09/26 07:37:41;;;;;;;448.53;208.30;;;;;;;;;;4952452;28;20230;-55
2023/09/26 07:40:08;;;;;;;449.07;197.47;;;;;;;;;;4948116;28;22445;-55
2023/09/26 07:42:35;;;;;;;438.53;196.07;;;;;;;;;;4960582;28;20633;-55
2023/09/26 07:45:01;;;;;;;454.83;208.73;;;;;;;;;;4950783;28;20223;-55
2023/09/26 07:47:27;;;;;;;450.70;210.33;;;;;;;;;;4953208;28;20226;-56
2023/09/26 07:49:53;;;;;;;639.67;336.13;;;;;;;;;;4931659;28;20238;-56
2023/09/26 07:52:22;;;;;;;449.00;208.83;;;;;;;;;;4955920;28;20229;-55
2023/09/26 07:54:48;;;;;;;446.63;200.47;;;;;;;;;;4965659;28;20190;-55
2023/09/26 07:57:14;;;;;;;505.93;227.00;;;;;;;;;;4951869;28;20663;-56
2023/09/26 07:59:40;;;;;;;445.77;198.33;;;;;;;;;;4962221;28;20244;-55
2023/09/26 08:02:06;;;;;;;473.70;211.57;;;;;;;;;;4966950;28;20347;-55
2023/09/26 08:04:32;;;;;;;490.13;224.17;;;;;;;;;;4956038;28;20292;-55
2023/09/26 08:06:58;;;;;;;466.67;215.63;;;;;;;;;;4941680;28;20225;-55
2023/09/26 08:09:24;;;;;;;446.60;211.17;;;;;;;;;;4951619;28;20634;-55
2023/09/26 08:11:50;;;;;;;460.43;219.40;;;;;;;;;;4944033;28;20293;-56
2023/09/26 08:14:22;;;;;;;430.27;203.70;;;;;;;;;;4953216;28;20483;-56
2023/09/26 08:16:48;;;;;;;443.43;202.77;;;;;;;;;;4955679;28;20711;-55
2023/09/26 08:19:14;;;;;;;431.73;200.90;;;;;;;;;;4949076;28;20313;-55
2023/09/26 08:21:40;;;;;;;431.97;202.80;;;;;;;;;;4949920;28;24425;-56
2023/09/26 08:24:06;;;;;;;437.27;204.13;;;;;;;;;;4978708;28;20591;-57
2023/09/26 08:26:32;;;;;;;433.63;206.60;;;;;;;;;;4962676;28;20228;-58
2023/09/26 08:28:59;;;;;;;516.83;248.33;;;;;;;;;;4973599;28;20233;-57
2023/09/26 08:31:25;;;;;;;468.53;231.47;;;;;;;;;;4975184;28;20226;-55
2023/09/26 08:33:51;;;;;;;451.53;214.80;;;;;;;;;;4957783;28;20183;-58
2023/09/26 08:36:19;;;;;;;420.23;195.10;;;;;;;;;;4957013;28;20194;-58
2023/09/26 08:38:45;;;;;;;425.77;189.33;;;;;;;;;;4956763;28;20673;-57
2023/09/26 08:41:11;;;;;;;470.83;216.33;;;;;;;;;;4955530;28;20704;-57
2023/09/26 08:43:38;;;;;;;421.17;192.60;;;;;;;;;;4953095;28;20218;-56
2023/09/26 08:46:06;;;;;;;423.43;198.33;;;;;;;;;;4955180;28;20200;-57
2023/09/26 08:48:33;;;;;;;458.23;219.20;;;;;;;;;;4951705;28;20297;-56
2023/09/26 08:50:59;;;;;;;434.43;207.97;;;;;;;;;;4966694;28;20586;-56
2023/09/26 08:53:25;;;;;;;445.70;214.70;;;;;;;;;;4961208;28;20691;-57
2023/09/26 08:55:52;;;;;;;460.57;222.00;;;;;;;;;;4960659;28;20557;-56
2023/09/26 08:58:20;;;;;;;432.87;208.33;;;;;;;;;;4956667;28;20232;-57
2023/09/26 09:00:46;;;;;;;437.57;216.17;;;;;;;;;;4963925;28;20218;-57
2023/09/26 09:03:13;;;;;;;459.17;218.77;;;;;;;;;;4960413;28;20264;-57
2023/09/26 09:05:40;;;;;;;419.80;204.73;;;;;;;;;;4951122;28;21703;-57
2023/09/26 09:08:06;;;;;;;470.60;229.30;;;;;;;;;;4952308;28;20217;-57
2023/09/26 09:10:48;;;;;;;486.20;242.63;;;;;;;;;;4951786;28;20688;-57
2023/09/26 09:13:25;;;;;;;432.63;206.70;;;;;;;;;;4953269;28;20224;-57
2023/09/26 09:15:51;;;;;;;460.03;231.00;;;;;;;;;;4950933;28;20576;-56
2023/09/26 09:18:29;;;;;;;442.10;217.77;;;;;;;;;;4964430;28;20194;-57
2023/09/26 09:20:55;;;;;;;437.20;215.80;;;;;;;;;;4956464;28;20263;-57
2023/09/26 09:23:21;;;;;;;431.90;213.37;;;;;;;;;;4956744;28;20242;-56
2023/09/26 09:25:50;;;;;;;507.40;259.50;;;;;;;;;;4959628;28;20247;-57
2023/09/26 09:28:20;;;;;;;452.17;224.00;;;;;;;;;;4961270;28;20228;-57
2023/09/26 09:30:46;;;;;;;446.03;219.13;;;;;;;;;;4962646;28;20182;-57
2023/09/26 09:33:14;;;;;;;454.67;225.23;;;;;;;;;;4954317;28;20240;-57
2023/09/26 09:35:40;;;;;;;426.80;210.37;;;;;;;;;;4953102;28;20213;-56
2023/09/26 09:38:12;;;;;;;442.13;215.47;;;;;;;;;;4959306;28;20232;-57
2023/09/26 09:40:39;;;;;;;475.87;248.63;;;;;;;;;;4952417;28;20226;-57
2023/09/26 09:43:05;;;;;;;470.30;241.57;;;;;;;;;;4955223;28;20273;-56
2023/09/26 09:45:34;;;;;;;465.50;233.70;;;;;;;;;;4958069;28;20202;-56
2023/09/26 09:48:03;;;;;;;486.17;248.93;;;;;;;;;;4951906;28;20230;-57
2023/09/26 09:50:31;;;;;;;455.93;232.13;;;;;;;;;;4960592;28;20674;-57
2023/09/26 09:53:01;;;;;;;402.27;206.57;;;;;;;;;;4961640;28;20229;-56
2023/09/26 09:55:30;;;;;;;442.47;230.27;;;;;;;;;;4973670;28;20218;-56
2023/09/26 09:57:57;;;;;;;474.23;247.00;;;;;;;;;;4962344;28;20606;-56
2023/09/26 10:00:24;;;;;;;453.53;232.37;;;;;;;;;;4963891;28;20257;-57
2023/09/26 10:02:51;;;;;;;463.10;244.83;;;;;;;;;;4952196;28;20223;-57
2023/09/26 10:05:19;;;;;;;447.80;233.87;;;;;;;;;;4955298;28;20234;-57
2023/09/26 10:07:45;;;;;;;472.73;244.10;;;;;;;;;;4966057;28;20214;-56
2023/09/26 10:10:13;;;;;;;447.57;232.57;;;;;;;;;;4970862;28;20244;-57
2023/09/26 10:12:40;;;;;;;412.27;217.87;;;;;;;;;;4964561;28;20304;-56
2023/09/26 10:15:13;;;;;;;438.77;225.27;;;;;;;;;;4974227;28;20245;-57
2023/09/26 10:17:43;;;;;;;464.13;237.87;;;;;;;;;;4957944;28;20604;-57
2023/09/26 10:20:10;;;;;;;499.93;267.23;;;;;;;;;;4960586;28;20221;-56
2023/09/26 10:22:36;;;;;;;452.33;244.77;;;;;;;;;;4970899;28;20221;-57
2023/09/26 10:25:04;;;;;;;453.13;249.33;;;;;;;;;;4971266;28;20224;-57
2023/09/26 10:27:33;;;;;;;474.30;266.47;;;;;;;;;;4971400;28;20241;-57
2023/09/26 10:30:01;;;;;;;454.90;243.90;;;;;;;;;;4973426;28;20368;-56
2023/09/26 10:32:31;;;;;;;453.40;241.07;;;;;;;;;;4953414;28;20593;-57
2023/09/26 10:34:58;;;;;;;454.30;239.13;;;;;;;;;;4968055;28;20245;-57
2023/09/26 10:37:25;;;;;;;432.20;222.63;;;;;;;;;;4974907;28;20217;-56
2023/09/26 10:39:51;;;;;;;499.73;266.57;;;;;;;;;;4966930;28;20232;-56
2023/09/26 10:42:22;;;;;;;435.37;230.83;;;;;;;;;;4972544;28;20205;-56
2023/09/26 10:44:50;;;;;;;450.20;247.10;;;;;;;;;;4965472;28;20753;-57
2023/09/26 10:47:17;;;;;;;459.47;251.87;;;;;;;;;;4967611;28;20210;-57
2023/09/26 10:49:46;;;;;;;450.60;241.67;;;;;;;;;;4963710;28;20244;-56
2023/09/26 10:52:12;;;;;;;437.40;236.30;;;;;;;;;;4969890;28;20304;-56
2023/09/26 10:54:41;;;;;;;478.37;261.17;;;;;;;;;;4969893;28;20185;-56
2023/09/26 10:57:07;;;;;;;447.37;243.03;;;;;;;;;;4960188;28;20256;-56
2023/09/26 10:59:33;;;;;;;520.70;292.73;;;;;;;;;;4913631;28;20296;-56
2023/09/26 11:02:04;;;;;;;466.57;261.77;;;;;;;;;;4962902;28;20221;-56
2023/09/26 11:04:32;;;;;;;458.97;257.77;;;;;;;;;;4963724;28;20680;-56
2023/09/26 11:06:58;;;;;;;487.03;274.20;;;;;;;;;;4967588;28;20190;-56
2023/09/26 11:09:27;;;;;;;445.53;245.43;;;;;;;;;;4961803;28;20273;-57
2023/09/26 11:11:56;;;;;;;458.90;263.33;;;;;;;;;;4966453;28;20558;-52
2023/09/26 11:14:22;;;;;;;442.87;244.03;;;;;;;;;;4945857;28;20279;-53
2023/09/26 11:16:48;;;;;;;458.13;249.90;;;;;;;;;;4954514;28;20636;-53
2023/09/26 11:19:14;;;;;;;451.20;256.93;;;;;;;;;;4952151;28;20419;-52
2023/09/26 11:21:40;;;;;;;486.73;276.63;;;;;;;;;;4952199;28;20213;-53
2023/09/26 11:24:41;;;;;;;471.10;266.27;;;;;;;;;;4945973;28;20225;-52
2023/09/26 11:27:08;;;;;;;459.77;262.87;;;;;;;;;;4848521;29;20265;-52
2023/09/26 11:29:35;;;;;;;459.10;267.07;;;;;;;;;;4903810;28;20226;-52
2023/09/26 11:32:03;;;;;;;509.60;290.00;;;;;;;;;;4954020;28;20230;-52
2023/09/26 11:34:29;;;;;;;521.53;307.20;;;;;;;;;;4950438;28;20230;-52
2023/09/26 11:36:55;;;;;;;636.53;380.43;;;;;;;;;;4948154;28;20796;-52
2023/09/26 11:39:22;;;;;;;483.17;273.63;;;;;;;;;;4957278;28;20197;-52
2023/09/26 11:42:01;;;;;;;488.23;287.93;;;;;;;;;;4949307;28;20217;-52
2023/09/26 11:44:27;;;;;;;502.23;294.97;;;;;;;;;;4947460;28;20736;-53
2023/09/26 11:46:53;;;;;;;464.73;278.30;;;;;;;;;;4952191;28;20218;-52
2023/09/26 11:49:19;;;;;;;463.30;278.23;;;;;;;;;;4954837;28;20704;-52
2023/09/26 11:51:48;;;;;;;454.87;271.93;;;;;;;;;;4950836;28;20269;-52
2023/09/26 11:54:15;;;;;;;482.07;282.37;;;;;;;;;;4963300;28;20581;-52
2023/09/26 11:56:45;;;;;;;498.97;295.37;;;;;;;;;;4956275;28;20211;-52
2023/09/26 11:59:11;;;;;;;492.20;295.67;;;;;;;;;;4950719;28;20232;-52
2023/09/26 12:01:41;;;;;;;502.63;298.37;;;;;;;;;;4952422;28;20411;-52
2023/09/26 12:04:07;;;;;;;455.57;285.53;;;;;;;;;;4953409;28;20225;-52
2023/09/26 12:06:34;;;;;;;469.03;284.67;;;;;;;;;;4949277;28;20266;-53
2023/09/26 12:09:00;;;;;;;491.30;306.73;;;;;;;;;;4953185;28;20226;-53
2023/09/26 12:11:26;;;;;;;510.57;321.80;;;;;;;;;;4954132;28;20280;-53
2023/09/26 12:13:52;;;;;;;496.13;311.70;;;;;;;;;;4961019;28;20244;-53
2023/09/26 12:16:18;;;;;;;464.00;293.40;;;;;;;;;;4953398;28;20213;-53
2023/09/26 12:18:44;;;;;;;491.73;312.83;;;;;;;;;;4945909;28;20291;-53
2023/09/26 12:21:10;;;;;;;491.50;304.27;;;;;;;;;;4960824;28;20225;-53
2023/09/26 12:23:36;;;;;;;466.03;297.57;;;;;;;;;;4960913;28;20752;-53
2023/09/26 12:26:02;;;;;;;485.07;305.63;;;;;;;;;;4959910;28;20233;-53
2023/09/26 12:28:28;;;;;;;482.47;298.00;;;;;;;;;;4952000;28;20361;-53
2023/09/26 12:30:54;;;;;;;495.23;312.83;;;;;;;;;;4951900;28;20210;-53
2023/09/26 12:33:22;;;;;;;466.53;301.40;;;;;;;;;;4954652;28;20717;-53
2023/09/26 12:35:48;;;;;;;497.60;326.13;;;;;;;;;;4951395;28;20209;-53
2023/09/26 12:38:14;;;;;;;484.10;320.17;;;;;;;;;;4955471;28;20269;-54
2023/09/26 12:40:40;;;;;;;556.73;366.90;;;;;;;;;;4948651;28;20865;-54
2023/09/26 12:43:06;;;;;;;470.57;320.17;;;;;;;;;;4962489;28;20220;-53
2023/09/26 12:45:31;;;;;;;483.60;313.33;;;;;;;;;;4955813;28;20239;-54
2023/09/26 12:47:58;;;;;;;485.50;324.53;;;;;;;;;;4954677;28;20309;-54
2023/09/26 12:50:25;;;;;;;491.37;326.93;;;;;;;;;;4956118;28;20248;-54
2023/09/26 12:52:54;;;;;;;478.93;322.33;;;;;;;;;;4957496;28;20256;-54
2023/09/26 12:55:20;;;;;;;489.73;331.10;;;;;;;;;;4958010;28;20721;-54
2023/09/26 12:57:47;;;;;;;469.97;326.20;;;;;;;;;;4956877;28;20190;-53
2023/09/26 13:00:14;;;;;;;465.87;313.63;;;;;;;;;;4974050;28;20232;-54
2023/09/26 13:02:40;;;;;;;491.20;332.53;;;;;;;;;;4965117;28;20718;-54
2023/09/26 13:05:06;;;;;;;462.47;322.27;;;;;;;;;;4973016;28;20755;-54
2023/09/26 13:07:32;;;;;;;475.33;326.07;;;;;;;;;;4972762;28;20209;-53
2023/09/26 13:09:59;;;;;;;479.67;321.93;;;;;;;;;;4971189;28;20627;-54
2023/09/26 13:12:25;;;;;;;463.80;327.20;;;;;;;;;;4965932;28;20253;-53
2023/09/26 13:14:51;;;;;;;468.93;336.77;;;;;;;;;;4968200;28;20248;-53
2023/09/26 13:17:17;;;;;;;459.77;325.10;;;;;;;;;;4969447;28;20324;-54
2023/09/26 13:19:43;;;;;;;516.10;355.13;;;;;;;;;;4966822;28;20288;-52
2023/09/26 13:22:11;;;;;;;453.20;336.17;;;;;;;;;;4968366;28;20313;-54
2023/09/26 13:24:37;;;;;;;495.50;350.10;;;;;;;;;;4959214;28;20179;-54
2023/09/26 13:27:04;;;;;;;479.63;367.33;;;;;;;;;;4953883;28;20805;-54
2023/09/26 13:29:30;;;;;;;514.83;407.90;;;;;;;;;;4954247;28;20692;-54
2023/09/26 13:31:56;;;;;;;482.40;385.60;;;;;;;;;;4956240;28;20248;-54
2023/09/26 13:34:22;;;;;;;472.50;385.57;;;;;;;;;;4945028;28;20211;-54
2023/09/26 13:36:48;;;;;;;517.20;413.67;;;;;;;;;;4947713;28;20182;-54
2023/09/26 13:39:14;;;;;;;481.97;406.53;;;;;;;;;;4956745;28;20288;-54